sensor_id;sensor_type;location;lat;lon;timestamp;P1;durP1;ratioP1;P2;durP2;ratioP2
22935;SDS011;11633;42.716;23.312;2023-06-10T00:00:33;5.43;;;4.93;;
22935;SDS011;11633;42.716;23.312;2023-06-10T00:02:59;5.63;;;4.63;;
22935;SDS011;11633;42.716;23.312;2023-06-10T00:05:24;8.35;;;4.95;;
22935;SDS011;11633;42.716;23.312;2023-06-10T00:07:49;8.23;;;5.30;;
22935;SDS011;11633;42.716;23.312;2023-06-10T00:10:16;7.63;;;5.38;;
22935;SDS011;11633;42.716;23.312;2023-06-10T00:12:41;6.07;;;5.38;;
22935;SDS011;11633;42.716;23.312;2023-06-10T00:15:09;6.53;;;5.30;;
22935;SDS011;11633;42.716;23.312;2023-06-10T00:17:34;7.45;;;5.13;;
22935;SDS011;11633;42.716;23.312;2023-06-10T00:20:03;6.78;;;6.05;;
22935;SDS011;11633;42.716;23.312;2023-06-10T00:22:33;7.40;;;5.60;;
22935;SDS011;11633;42.716;23.312;2023-06-10T00:25:06;6.18;;;5.57;;
22935;SDS011;11633;42.716;23.312;2023-06-10T00:27:32;8.13;;;5.53;;
22935;SDS011;11633;42.716;23.312;2023-06-10T00:30:03;9.55;;;6.25;;
22935;SDS011;11633;42.716;23.312;2023-06-10T00:32:31;6.15;;;5.53;;
22935;SDS011;11633;42.716;23.312;2023-06-10T00:34:56;7.40;;;5.30;;
22935;SDS011;11633;42.716;23.312;2023-06-10T00:37:22;9.77;;;5.30;;
22935;SDS011;11633;42.716;23.312;2023-06-10T00:39:47;6.30;;;5.72;;
22935;SDS011;11633;42.716;23.312;2023-06-10T00:42:13;6.38;;;4.97;;
22935;SDS011;11633;42.716;23.312;2023-06-10T00:44:40;7.47;;;4.88;;
22935;SDS011;11633;42.716;23.312;2023-06-10T00:47:05;7.90;;;5.40;;
22935;SDS011;11633;42.716;23.312;2023-06-10T00:49:31;5.18;;;4.68;;
22935;SDS011;11633;42.716;23.312;2023-06-10T00:51:57;6.68;;;5.13;;
22935;SDS011;11633;42.716;23.312;2023-06-10T00:54:22;7.80;;;5.38;;
22935;SDS011;11633;42.716;23.312;2023-06-10T00:56:48;7.82;;;5.65;;
22935;SDS011;11633;42.716;23.312;2023-06-10T00:59:13;6.38;;;5.78;;
22935;SDS011;11633;42.716;23.312;2023-06-10T01:01:39;6.18;;;5.25;;
22935;SDS011;11633;42.716;23.312;2023-06-10T01:04:06;7.00;;;5.85;;
22935;SDS011;11633;42.716;23.312;2023-06-10T01:06:36;7.90;;;6.13;;
22935;SDS011;11633;42.716;23.312;2023-06-10T01:09:20;7.20;;;5.78;;
22935;SDS011;11633;42.716;23.312;2023-06-10T01:12:05;6.28;;;5.68;;
22935;SDS011;11633;42.716;23.312;2023-06-10T01:14:34;7.03;;;6.00;;
22935;SDS011;11633;42.716;23.312;2023-06-10T01:17:00;6.45;;;5.65;;
22935;SDS011;11633;42.716;23.312;2023-06-10T01:19:26;6.25;;;5.65;;
22935;SDS011;11633;42.716;23.312;2023-06-10T01:21:51;10.00;;;6.47;;
22935;SDS011;11633;42.716;23.312;2023-06-10T01:24:16;7.40;;;6.38;;
22935;SDS011;11633;42.716;23.312;2023-06-10T01:26:43;8.40;;;6.82;;
22935;SDS011;11633;42.716;23.312;2023-06-10T01:29:17;7.18;;;6.47;;
22935;SDS011;11633;42.716;23.312;2023-06-10T01:32:45;8.45;;;6.32;;
22935;SDS011;11633;42.716;23.312;2023-06-10T01:34:39;7.03;;;6.32;;
22935;SDS011;11633;42.716;23.312;2023-06-10T01:37:06;7.63;;;5.75;;
22935;SDS011;11633;42.716;23.312;2023-06-10T01:39:32;9.98;;;5.82;;
22935;SDS011;11633;42.716;23.312;2023-06-10T01:41:58;7.82;;;7.03;;
22935;SDS011;11633;42.716;23.312;2023-06-10T01:44:24;8.05;;;6.40;;
22935;SDS011;11633;42.716;23.312;2023-06-10T01:46:49;8.02;;;6.78;;
22935;SDS011;11633;42.716;23.312;2023-06-10T01:49:15;6.72;;;6.00;;
22935;SDS011;11633;42.716;23.312;2023-06-10T01:51:40;8.02;;;6.85;;
22935;SDS011;11633;42.716;23.312;2023-06-10T01:54:06;7.95;;;7.10;;
22935;SDS011;11633;42.716;23.312;2023-06-10T01:56:32;7.57;;;6.78;;
22935;SDS011;11633;42.716;23.312;2023-06-10T01:58:57;9.55;;;6.95;;
22935;SDS011;11633;42.716;23.312;2023-06-10T02:01:28;7.20;;;6.22;;
22935;SDS011;11633;42.716;23.312;2023-06-10T02:03:53;7.05;;;6.38;;
22935;SDS011;11633;42.716;23.312;2023-06-10T02:06:19;9.13;;;6.13;;
22935;SDS011;11633;42.716;23.312;2023-06-10T02:08:44;8.18;;;6.07;;
22935;SDS011;11633;42.716;23.312;2023-06-10T02:11:09;7.03;;;6.32;;
22935;SDS011;11633;42.716;23.312;2023-06-10T02:13:35;7.50;;;6.40;;
22935;SDS011;11633;42.716;23.312;2023-06-10T02:16:00;7.13;;;6.43;;
22935;SDS011;11633;42.716;23.312;2023-06-10T02:18:26;8.18;;;6.82;;
22935;SDS011;11633;42.716;23.312;2023-06-10T02:20:53;8.40;;;6.70;;
22935;SDS011;11633;42.716;23.312;2023-06-10T02:23:36;8.57;;;6.40;;
22935;SDS011;11633;42.716;23.312;2023-06-10T02:26:02;8.35;;;6.80;;
22935;SDS011;11633;42.716;23.312;2023-06-10T02:28:27;8.20;;;6.90;;
22935;SDS011;11633;42.716;23.312;2023-06-10T02:30:52;6.40;;;5.80;;
22935;SDS011;11633;42.716;23.312;2023-06-10T02:33:18;8.38;;;6.75;;
22935;SDS011;11633;42.716;23.312;2023-06-10T02:35:43;7.97;;;7.00;;
22935;SDS011;11633;42.716;23.312;2023-06-10T02:38:08;8.77;;;6.68;;
22935;SDS011;11633;42.716;23.312;2023-06-10T02:40:33;7.65;;;6.85;;
22935;SDS011;11633;42.716;23.312;2023-06-10T02:42:59;7.95;;;7.15;;
22935;SDS011;11633;42.716;23.312;2023-06-10T02:45:24;7.72;;;6.45;;
22935;SDS011;11633;42.716;23.312;2023-06-10T02:47:50;7.28;;;6.10;;
22935;SDS011;11633;42.716;23.312;2023-06-10T02:50:15;7.90;;;7.10;;
22935;SDS011;11633;42.716;23.312;2023-06-10T02:52:40;7.78;;;6.97;;
22935;SDS011;11633;42.716;23.312;2023-06-10T02:55:06;8.80;;;7.05;;
22935;SDS011;11633;42.716;23.312;2023-06-10T02:57:31;10.65;;;7.45;;
22935;SDS011;11633;42.716;23.312;2023-06-10T02:59:56;10.35;;;6.93;;
22935;SDS011;11633;42.716;23.312;2023-06-10T03:02:23;9.43;;;7.07;;
22935;SDS011;11633;42.716;23.312;2023-06-10T03:04:54;8.13;;;7.30;;
22935;SDS011;11633;42.716;23.312;2023-06-10T03:07:20;8.52;;;7.68;;
22935;SDS011;11633;42.716;23.312;2023-06-10T03:09:45;9.70;;;7.72;;
22935;SDS011;11633;42.716;23.312;2023-06-10T03:12:10;8.25;;;7.22;;
22935;SDS011;11633;42.716;23.312;2023-06-10T03:14:36;9.77;;;7.50;;
22935;SDS011;11633;42.716;23.312;2023-06-10T03:17:03;9.95;;;7.90;;
22935;SDS011;11633;42.716;23.312;2023-06-10T03:19:29;11.38;;;7.70;;
22935;SDS011;11633;42.716;23.312;2023-06-10T03:22:11;11.18;;;8.05;;
22935;SDS011;11633;42.716;23.312;2023-06-10T03:24:37;8.68;;;7.03;;
22935;SDS011;11633;42.716;23.312;2023-06-10T03:27:05;10.38;;;8.48;;
22935;SDS011;11633;42.716;23.312;2023-06-10T03:29:30;9.95;;;8.05;;
22935;SDS011;11633;42.716;23.312;2023-06-10T03:31:55;9.23;;;8.32;;
22935;SDS011;11633;42.716;23.312;2023-06-10T03:34:21;9.00;;;7.90;;
22935;SDS011;11633;42.716;23.312;2023-06-10T03:36:48;7.07;;;6.45;;
22935;SDS011;11633;42.716;23.312;2023-06-10T03:39:13;7.10;;;6.35;;
22935;SDS011;11633;42.716;23.312;2023-06-10T03:41:39;6.00;;;5.40;;
22935;SDS011;11633;42.716;23.312;2023-06-10T03:44:04;7.60;;;6.43;;
22935;SDS011;11633;42.716;23.312;2023-06-10T03:46:29;9.40;;;7.30;;
22935;SDS011;11633;42.716;23.312;2023-06-10T03:48:54;7.18;;;5.45;;
22935;SDS011;11633;42.716;23.312;2023-06-10T03:51:20;6.97;;;5.20;;
22935;SDS011;11633;42.716;23.312;2023-06-10T03:53:46;6.97;;;4.80;;
22935;SDS011;11633;42.716;23.312;2023-06-10T03:56:11;7.80;;;5.13;;
22935;SDS011;11633;42.716;23.312;2023-06-10T03:58:36;4.75;;;4.25;;
22935;SDS011;11633;42.716;23.312;2023-06-10T04:01:01;5.40;;;4.90;;
22935;SDS011;11633;42.716;23.312;2023-06-10T04:03:27;6.13;;;4.25;;
22935;SDS011;11633;42.716;23.312;2023-06-10T04:05:52;5.88;;;5.28;;
22935;SDS011;11633;42.716;23.312;2023-06-10T04:08:17;7.03;;;4.20;;
22935;SDS011;11633;42.716;23.312;2023-06-10T04:10:46;5.70;;;4.78;;
22935;SDS011;11633;42.716;23.312;2023-06-10T04:13:11;7.53;;;5.70;;
22935;SDS011;11633;42.716;23.312;2023-06-10T04:15:36;6.68;;;5.97;;
22935;SDS011;11633;42.716;23.312;2023-06-10T04:18:01;7.22;;;5.68;;
22935;SDS011;11633;42.716;23.312;2023-06-10T04:20:27;6.00;;;5.35;;
22935;SDS011;11633;42.716;23.312;2023-06-10T04:22:52;7.50;;;5.45;;
22935;SDS011;11633;42.716;23.312;2023-06-10T04:25:17;9.15;;;6.75;;
22935;SDS011;11633;42.716;23.312;2023-06-10T04:27:43;8.73;;;6.28;;
22935;SDS011;11633;42.716;23.312;2023-06-10T04:30:11;7.40;;;6.65;;
22935;SDS011;11633;42.716;23.312;2023-06-10T04:32:37;11.77;;;6.45;;
22935;SDS011;11633;42.716;23.312;2023-06-10T04:35:02;8.32;;;6.47;;
22935;SDS011;11633;42.716;23.312;2023-06-10T04:37:27;10.88;;;6.28;;
22935;SDS011;11633;42.716;23.312;2023-06-10T04:39:54;7.00;;;6.25;;
22935;SDS011;11633;42.716;23.312;2023-06-10T04:42:19;8.65;;;6.00;;
22935;SDS011;11633;42.716;23.312;2023-06-10T04:44:44;7.00;;;6.38;;
22935;SDS011;11633;42.716;23.312;2023-06-10T04:47:10;7.72;;;5.93;;
22935;SDS011;11633;42.716;23.312;2023-06-10T04:49:35;9.35;;;6.32;;
22935;SDS011;11633;42.716;23.312;2023-06-10T04:52:00;10.48;;;6.70;;
22935;SDS011;11633;42.716;23.312;2023-06-10T04:54:26;8.10;;;6.85;;
22935;SDS011;11633;42.716;23.312;2023-06-10T04:56:51;9.30;;;7.15;;
22935;SDS011;11633;42.716;23.312;2023-06-10T04:59:16;12.13;;;7.93;;
22935;SDS011;11633;42.716;23.312;2023-06-10T05:01:41;10.65;;;8.45;;
22935;SDS011;11633;42.716;23.312;2023-06-10T05:04:07;10.05;;;6.97;;
22935;SDS011;11633;42.716;23.312;2023-06-10T05:06:32;10.23;;;6.93;;
22935;SDS011;11633;42.716;23.312;2023-06-10T05:08:57;7.90;;;7.10;;
22935;SDS011;11633;42.716;23.312;2023-06-10T05:11:22;9.00;;;6.68;;
22935;SDS011;11633;42.716;23.312;2023-06-10T05:13:48;9.60;;;6.97;;
22935;SDS011;11633;42.716;23.312;2023-06-10T05:16:13;8.60;;;7.45;;
22935;SDS011;11633;42.716;23.312;2023-06-10T05:18:40;8.63;;;7.03;;
22935;SDS011;11633;42.716;23.312;2023-06-10T05:21:05;10.57;;;6.75;;
22935;SDS011;11633;42.716;23.312;2023-06-10T05:23:31;7.85;;;6.05;;
22935;SDS011;11633;42.716;23.312;2023-06-10T05:25:56;6.60;;;6.00;;
22935;SDS011;11633;42.716;23.312;2023-06-10T05:28:21;8.10;;;5.95;;
22935;SDS011;11633;42.716;23.312;2023-06-10T05:30:46;6.47;;;5.82;;
22935;SDS011;11633;42.716;23.312;2023-06-10T05:33:12;8.98;;;6.03;;
22935;SDS011;11633;42.716;23.312;2023-06-10T05:35:37;6.53;;;5.93;;
22935;SDS011;11633;42.716;23.312;2023-06-10T05:38:02;5.95;;;5.15;;
22935;SDS011;11633;42.716;23.312;2023-06-10T05:40:28;8.23;;;6.40;;
22935;SDS011;11633;42.716;23.312;2023-06-10T05:42:53;6.35;;;5.75;;
22935;SDS011;11633;42.716;23.312;2023-06-10T05:45:18;8.13;;;6.75;;
22935;SDS011;11633;42.716;23.312;2023-06-10T05:47:43;7.15;;;5.60;;
22935;SDS011;11633;42.716;23.312;2023-06-10T05:50:09;8.38;;;6.13;;
22935;SDS011;11633;42.716;23.312;2023-06-10T05:52:35;8.85;;;6.63;;
22935;SDS011;11633;42.716;23.312;2023-06-10T05:55:00;8.38;;;6.97;;
22935;SDS011;11633;42.716;23.312;2023-06-10T05:57:25;8.63;;;6.30;;
22935;SDS011;11633;42.716;23.312;2023-06-10T05:59:51;9.40;;;6.85;;
22935;SDS011;11633;42.716;23.312;2023-06-10T06:02:16;9.43;;;7.32;;
22935;SDS011;11633;42.716;23.312;2023-06-10T06:04:41;9.13;;;6.85;;
22935;SDS011;11633;42.716;23.312;2023-06-10T06:07:07;8.85;;;6.47;;
22935;SDS011;11633;42.716;23.312;2023-06-10T06:09:32;8.55;;;6.93;;
22935;SDS011;11633;42.716;23.312;2023-06-10T06:11:57;8.50;;;7.07;;
22935;SDS011;11633;42.716;23.312;2023-06-10T06:14:22;7.95;;;6.72;;
22935;SDS011;11633;42.716;23.312;2023-06-10T06:16:48;8.77;;;6.68;;
22935;SDS011;11633;42.716;23.312;2023-06-10T06:19:13;9.73;;;6.35;;
22935;SDS011;11633;42.716;23.312;2023-06-10T06:21:38;6.28;;;5.40;;
22935;SDS011;11633;42.716;23.312;2023-06-10T06:24:04;7.40;;;5.43;;
22935;SDS011;11633;42.716;23.312;2023-06-10T06:26:29;6.65;;;5.50;;
22935;SDS011;11633;42.716;23.312;2023-06-10T06:28:54;7.53;;;5.45;;
22935;SDS011;11633;42.716;23.312;2023-06-10T06:31:19;9.35;;;5.53;;
22935;SDS011;11633;42.716;23.312;2023-06-10T06:33:45;8.27;;;6.38;;
22935;SDS011;11633;42.716;23.312;2023-06-10T06:36:10;10.23;;;6.97;;
22935;SDS011;11633;42.716;23.312;2023-06-10T06:38:35;8.98;;;5.97;;
22935;SDS011;11633;42.716;23.312;2023-06-10T06:41:01;15.55;;;10.52;;
22935;SDS011;11633;42.716;23.312;2023-06-10T06:43:28;6.97;;;6.05;;
22935;SDS011;11633;42.716;23.312;2023-06-10T06:45:54;7.22;;;5.60;;
22935;SDS011;11633;42.716;23.312;2023-06-10T06:48:20;7.63;;;5.32;;
22935;SDS011;11633;42.716;23.312;2023-06-10T06:50:45;7.60;;;5.20;;
22935;SDS011;11633;42.716;23.312;2023-06-10T06:53:11;7.43;;;5.78;;
22935;SDS011;11633;42.716;23.312;2023-06-10T06:55:36;6.85;;;4.97;;
22935;SDS011;11633;42.716;23.312;2023-06-10T06:58:02;7.90;;;4.88;;
22935;SDS011;11633;42.716;23.312;2023-06-10T07:00:29;5.72;;;4.93;;
22935;SDS011;11633;42.716;23.312;2023-06-10T07:02:55;6.07;;;5.47;;
22935;SDS011;11633;42.716;23.312;2023-06-10T07:05:23;5.35;;;4.53;;
22935;SDS011;11633;42.716;23.312;2023-06-10T07:07:52;4.88;;;4.30;;
22935;SDS011;11633;42.716;23.312;2023-06-10T07:10:21;6.32;;;4.55;;
22935;SDS011;11633;42.716;23.312;2023-06-10T07:12:47;5.53;;;4.63;;
22935;SDS011;11633;42.716;23.312;2023-06-10T07:15:12;5.63;;;4.72;;
22935;SDS011;11633;42.716;23.312;2023-06-10T07:17:37;6.38;;;4.07;;
22935;SDS011;11633;42.716;23.312;2023-06-10T07:20:03;6.82;;;4.18;;
22935;SDS011;11633;42.716;23.312;2023-06-10T07:22:28;5.07;;;4.10;;
22935;SDS011;11633;42.716;23.312;2023-06-10T07:24:53;4.40;;;4.00;;
22935;SDS011;11633;42.716;23.312;2023-06-10T07:27:20;3.38;;;3.00;;
22935;SDS011;11633;42.716;23.312;2023-06-10T07:29:45;6.53;;;3.35;;
22935;SDS011;11633;42.716;23.312;2023-06-10T07:32:10;3.90;;;3.10;;
22935;SDS011;11633;42.716;23.312;2023-06-10T07:34:36;4.23;;;3.53;;
22935;SDS011;11633;42.716;23.312;2023-06-10T07:37:01;3.22;;;2.95;;
22935;SDS011;11633;42.716;23.312;2023-06-10T07:39:26;4.75;;;4.35;;
22935;SDS011;11633;42.716;23.312;2023-06-10T07:41:52;4.10;;;3.38;;
22935;SDS011;11633;42.716;23.312;2023-06-10T07:44:19;6.30;;;3.45;;
22935;SDS011;11633;42.716;23.312;2023-06-10T07:46:44;3.83;;;3.47;;
22935;SDS011;11633;42.716;23.312;2023-06-10T07:49:10;6.10;;;4.07;;
22935;SDS011;11633;42.716;23.312;2023-06-10T07:51:35;6.30;;;5.38;;
22935;SDS011;11633;42.716;23.312;2023-06-10T07:54:01;5.05;;;3.67;;
22935;SDS011;11633;42.716;23.312;2023-06-10T07:56:27;3.50;;;2.80;;
22935;SDS011;11633;42.716;23.312;2023-06-10T07:58:52;4.90;;;3.55;;
22935;SDS011;11633;42.716;23.312;2023-06-10T08:01:17;3.60;;;3.20;;
22935;SDS011;11633;42.716;23.312;2023-06-10T08:03:42;4.67;;;3.50;;
22935;SDS011;11633;42.716;23.312;2023-06-10T08:06:08;5.32;;;3.15;;
22935;SDS011;11633;42.716;23.312;2023-06-10T08:08:36;4.53;;;2.97;;
22935;SDS011;11633;42.716;23.312;2023-06-10T08:11:06;2.85;;;2.55;;
22935;SDS011;11633;42.716;23.312;2023-06-10T08:13:31;4.35;;;2.05;;
22935;SDS011;11633;42.716;23.312;2023-06-10T08:15:56;2.58;;;2.38;;
22935;SDS011;11633;42.716;23.312;2023-06-10T08:18:22;4.25;;;2.70;;
22935;SDS011;11633;42.716;23.312;2023-06-10T08:20:47;4.60;;;3.03;;
22935;SDS011;11633;42.716;23.312;2023-06-10T08:23:13;5.35;;;3.25;;
22935;SDS011;11633;42.716;23.312;2023-06-10T08:25:38;5.43;;;3.60;;
22935;SDS011;11633;42.716;23.312;2023-06-10T08:28:04;4.27;;;3.03;;
22935;SDS011;11633;42.716;23.312;2023-06-10T08:30:29;2.97;;;2.65;;
22935;SDS011;11633;42.716;23.312;2023-06-10T08:32:55;5.43;;;2.80;;
22935;SDS011;11633;42.716;23.312;2023-06-10T08:35:20;4.90;;;2.95;;
22935;SDS011;11633;42.716;23.312;2023-06-10T08:37:46;4.18;;;2.50;;
22935;SDS011;11633;42.716;23.312;2023-06-10T08:40:11;4.72;;;3.17;;
22935;SDS011;11633;42.716;23.312;2023-06-10T08:42:42;6.57;;;3.40;;
22935;SDS011;11633;42.716;23.312;2023-06-10T08:45:11;4.78;;;2.90;;
22935;SDS011;11633;42.716;23.312;2023-06-10T08:47:37;3.17;;;2.88;;
22935;SDS011;11633;42.716;23.312;2023-06-10T08:50:03;5.07;;;3.35;;
22935;SDS011;11633;42.716;23.312;2023-06-10T08:52:29;3.72;;;3.28;;
22935;SDS011;11633;42.716;23.312;2023-06-10T08:55:07;3.85;;;3.50;;
22935;SDS011;11633;42.716;23.312;2023-06-10T08:57:34;3.13;;;2.83;;
22935;SDS011;11633;42.716;23.312;2023-06-10T09:00:00;5.55;;;3.22;;
22935;SDS011;11633;42.716;23.312;2023-06-10T09:02:26;3.83;;;3.25;;
22935;SDS011;11633;42.716;23.312;2023-06-10T09:04:52;5.43;;;3.15;;
22935;SDS011;11633;42.716;23.312;2023-06-10T09:07:17;6.20;;;3.38;;
22935;SDS011;11633;42.716;23.312;2023-06-10T09:09:43;3.13;;;2.72;;
22935;SDS011;11633;42.716;23.312;2023-06-10T09:12:09;2.80;;;2.60;;
22935;SDS011;11633;42.716;23.312;2023-06-10T09:14:35;4.30;;;3.40;;
22935;SDS011;11633;42.716;23.312;2023-06-10T09:17:03;4.57;;;2.97;;
22935;SDS011;11633;42.716;23.312;2023-06-10T09:19:30;4.28;;;3.15;;
22935;SDS011;11633;42.716;23.312;2023-06-10T09:21:55;3.15;;;2.47;;
22935;SDS011;11633;42.716;23.312;2023-06-10T09:24:21;4.30;;;2.10;;
22935;SDS011;11633;42.716;23.312;2023-06-10T09:26:47;3.72;;;2.92;;
22935;SDS011;11633;42.716;23.312;2023-06-10T09:29:12;2.75;;;2.55;;
22935;SDS011;11633;42.716;23.312;2023-06-10T09:31:38;4.10;;;2.58;;
22935;SDS011;11633;42.716;23.312;2023-06-10T09:34:07;3.50;;;2.55;;
22935;SDS011;11633;42.716;23.312;2023-06-10T09:36:34;2.83;;;2.58;;
22935;SDS011;11633;42.716;23.312;2023-06-10T09:38:59;3.10;;;2.58;;
22935;SDS011;11633;42.716;23.312;2023-06-10T09:41:34;2.75;;;2.50;;
22935;SDS011;11633;42.716;23.312;2023-06-10T09:44:02;3.80;;;2.70;;
22935;SDS011;11633;42.716;23.312;2023-06-10T09:46:34;2.63;;;2.42;;
22935;SDS011;11633;42.716;23.312;2023-06-10T09:48:59;3.13;;;2.80;;
22935;SDS011;11633;42.716;23.312;2023-06-10T09:51:25;2.92;;;2.30;;
22935;SDS011;11633;42.716;23.312;2023-06-10T09:53:53;2.78;;;2.50;;
22935;SDS011;11633;42.716;23.312;2023-06-10T09:56:18;3.15;;;2.55;;
22935;SDS011;11633;42.716;23.312;2023-06-10T09:58:45;2.45;;;1.85;;
22935;SDS011;11633;42.716;23.312;2023-06-10T10:01:11;5.80;;;2.47;;
22935;SDS011;11633;42.716;23.312;2023-06-10T10:03:43;3.17;;;2.50;;
22935;SDS011;11633;42.716;23.312;2023-06-10T10:06:09;2.00;;;1.83;;
22935;SDS011;11633;42.716;23.312;2023-06-10T10:08:34;1.98;;;1.80;;
22935;SDS011;11633;42.716;23.312;2023-06-10T10:10:59;1.92;;;1.83;;
22935;SDS011;11633;42.716;23.312;2023-06-10T10:13:25;2.17;;;1.98;;
22935;SDS011;11633;42.716;23.312;2023-06-10T10:15:52;2.30;;;1.90;;
22935;SDS011;11633;42.716;23.312;2023-06-10T10:18:17;5.35;;;3.65;;
22935;SDS011;11633;42.716;23.312;2023-06-10T10:20:49;2.35;;;2.08;;
22935;SDS011;11633;42.716;23.312;2023-06-10T10:23:17;3.00;;;1.67;;
22935;SDS011;11633;42.716;23.312;2023-06-10T10:25:43;2.42;;;1.98;;
22935;SDS011;11633;42.716;23.312;2023-06-10T10:28:12;2.38;;;2.10;;
22935;SDS011;11633;42.716;23.312;2023-06-10T10:30:48;2.50;;;1.90;;
22935;SDS011;11633;42.716;23.312;2023-06-10T10:33:25;2.25;;;2.05;;
22935;SDS011;11633;42.716;23.312;2023-06-10T10:35:56;2.70;;;2.50;;
22935;SDS011;11633;42.716;23.312;2023-06-10T10:38:22;2.15;;;1.85;;
22935;SDS011;11633;42.716;23.312;2023-06-10T10:40:48;3.05;;;2.17;;
22935;SDS011;11633;42.716;23.312;2023-06-10T10:43:13;2.35;;;2.15;;
22935;SDS011;11633;42.716;23.312;2023-06-10T10:45:39;2.55;;;2.08;;
22935;SDS011;11633;42.716;23.312;2023-06-10T10:48:05;3.17;;;2.88;;
22935;SDS011;11633;42.716;23.312;2023-06-10T10:50:31;3.40;;;2.33;;
22935;SDS011;11633;42.716;23.312;2023-06-10T10:53:00;2.30;;;2.00;;
22935;SDS011;11633;42.716;23.312;2023-06-10T10:55:27;2.53;;;1.98;;
22935;SDS011;11633;42.716;23.312;2023-06-10T10:57:56;3.05;;;1.88;;
22935;SDS011;11633;42.716;23.312;2023-06-10T11:01:05;2.00;;;1.80;;
22935;SDS011;11633;42.716;23.312;2023-06-10T11:03:16;3.75;;;2.05;;
22935;SDS011;11633;42.716;23.312;2023-06-10T11:05:42;2.65;;;2.03;;
22935;SDS011;11633;42.716;23.312;2023-06-10T11:08:09;2.60;;;2.38;;
22935;SDS011;11633;42.716;23.312;2023-06-10T11:10:35;7.82;;;3.15;;
22935;SDS011;11633;42.716;23.312;2023-06-10T11:13:13;5.13;;;2.80;;
22935;SDS011;11633;42.716;23.312;2023-06-10T11:15:42;2.47;;;2.28;;
22935;SDS011;11633;42.716;23.312;2023-06-10T11:18:15;3.15;;;2.58;;
22935;SDS011;11633;42.716;23.312;2023-06-10T11:20:45;4.07;;;2.78;;
22935;SDS011;11633;42.716;23.312;2023-06-10T11:23:11;4.28;;;2.90;;
22935;SDS011;11633;42.716;23.312;2023-06-10T11:25:49;2.60;;;2.40;;
22935;SDS011;11633;42.716;23.312;2023-06-10T11:28:21;3.53;;;2.70;;
22935;SDS011;11633;42.716;23.312;2023-06-10T11:30:46;2.85;;;2.60;;
22935;SDS011;11633;42.716;23.312;2023-06-10T11:33:16;3.20;;;2.58;;
22935;SDS011;11633;42.716;23.312;2023-06-10T11:35:41;5.13;;;2.90;;
22935;SDS011;11633;42.716;23.312;2023-06-10T11:38:07;3.35;;;3.05;;
22935;SDS011;11633;42.716;23.312;2023-06-10T11:40:32;3.08;;;2.78;;
22935;SDS011;11633;42.716;23.312;2023-06-10T11:42:59;3.20;;;2.60;;
22935;SDS011;11633;42.716;23.312;2023-06-10T11:45:24;3.03;;;2.50;;
22935;SDS011;11633;42.716;23.312;2023-06-10T11:47:56;3.80;;;2.75;;
22935;SDS011;11633;42.716;23.312;2023-06-10T11:50:31;3.20;;;2.90;;
22935;SDS011;11633;42.716;23.312;2023-06-10T11:52:57;3.15;;;2.17;;
22935;SDS011;11633;42.716;23.312;2023-06-10T11:55:23;2.38;;;2.17;;
22935;SDS011;11633;42.716;23.312;2023-06-10T11:57:48;5.22;;;2.55;;
22935;SDS011;11633;42.716;23.312;2023-06-10T12:00:22;4.10;;;2.50;;
22935;SDS011;11633;42.716;23.312;2023-06-10T12:02:54;2.08;;;1.80;;
22935;SDS011;11633;42.716;23.312;2023-06-10T12:05:20;2.50;;;2.00;;
22935;SDS011;11633;42.716;23.312;2023-06-10T12:07:45;2.30;;;2.10;;
22935;SDS011;11633;42.716;23.312;2023-06-10T12:10:10;4.88;;;3.03;;
22935;SDS011;11633;42.716;23.312;2023-06-10T12:12:36;2.80;;;2.45;;
22935;SDS011;11633;42.716;23.312;2023-06-10T12:15:02;3.17;;;2.05;;
22935;SDS011;11633;42.716;23.312;2023-06-10T12:19:55;4.17;;;2.53;;
22935;SDS011;11633;42.716;23.312;2023-06-10T12:22:20;3.35;;;2.30;;
22935;SDS011;11633;42.716;23.312;2023-06-10T12:24:56;2.72;;;2.33;;
22935;SDS011;11633;42.716;23.312;2023-06-10T12:27:24;2.83;;;2.00;;
22935;SDS011;11633;42.716;23.312;2023-06-10T12:29:52;2.60;;;2.05;;
22935;SDS011;11633;42.716;23.312;2023-06-10T12:32:21;3.00;;;2.63;;
22935;SDS011;11633;42.716;23.312;2023-06-10T12:35:01;3.78;;;2.17;;
22935;SDS011;11633;42.716;23.312;2023-06-10T12:37:26;2.80;;;2.45;;
22935;SDS011;11633;42.716;23.312;2023-06-10T12:39:52;4.85;;;2.33;;
22935;SDS011;11633;42.716;23.312;2023-06-10T12:42:21;2.50;;;2.17;;
22935;SDS011;11633;42.716;23.312;2023-06-10T12:44:47;2.67;;;2.05;;
22935;SDS011;11633;42.716;23.312;2023-06-10T12:47:18;2.65;;;2.45;;
22935;SDS011;11633;42.716;23.312;2023-06-10T12:49:43;2.70;;;2.10;;
22935;SDS011;11633;42.716;23.312;2023-06-10T12:52:08;2.97;;;2.13;;
22935;SDS011;11633;42.716;23.312;2023-06-10T12:54:34;2.40;;;2.20;;
22935;SDS011;11633;42.716;23.312;2023-06-10T12:56:59;2.92;;;2.38;;
22935;SDS011;11633;42.716;23.312;2023-06-10T12:59:25;2.83;;;2.42;;
22935;SDS011;11633;42.716;23.312;2023-06-10T13:01:56;2.38;;;2.13;;
22935;SDS011;11633;42.716;23.312;2023-06-10T13:04:21;3.60;;;2.05;;
22935;SDS011;11633;42.716;23.312;2023-06-10T13:06:48;2.50;;;2.20;;
22935;SDS011;11633;42.716;23.312;2023-06-10T13:09:14;2.35;;;2.15;;
22935;SDS011;11633;42.716;23.312;2023-06-10T13:11:39;2.97;;;2.47;;
22935;SDS011;11633;42.716;23.312;2023-06-10T13:14:05;4.07;;;2.90;;
22935;SDS011;11633;42.716;23.312;2023-06-10T13:16:31;3.45;;;2.65;;
22935;SDS011;11633;42.716;23.312;2023-06-10T13:18:57;4.90;;;3.00;;
22935;SDS011;11633;42.716;23.312;2023-06-10T13:21:22;4.63;;;2.90;;
22935;SDS011;11633;42.716;23.312;2023-06-10T13:23:47;3.42;;;2.40;;
22935;SDS011;11633;42.716;23.312;2023-06-10T13:26:13;4.00;;;2.50;;
22935;SDS011;11633;42.716;23.312;2023-06-10T13:28:38;4.97;;;2.88;;
22935;SDS011;11633;42.716;23.312;2023-06-10T13:31:04;3.63;;;2.63;;
22935;SDS011;11633;42.716;23.312;2023-06-10T13:33:29;3.58;;;3.20;;
22935;SDS011;11633;42.716;23.312;2023-06-10T13:35:54;3.42;;;2.83;;
22935;SDS011;11633;42.716;23.312;2023-06-10T13:38:19;3.13;;;2.50;;
22935;SDS011;11633;42.716;23.312;2023-06-10T13:40:45;3.20;;;2.58;;
22935;SDS011;11633;42.716;23.312;2023-06-10T13:43:10;4.18;;;3.38;;
22935;SDS011;11633;42.716;23.312;2023-06-10T13:45:36;4.03;;;2.55;;
22935;SDS011;11633;42.716;23.312;2023-06-10T13:48:01;6.20;;;3.20;;
22935;SDS011;11633;42.716;23.312;2023-06-10T13:50:29;3.10;;;2.80;;
22935;SDS011;11633;42.716;23.312;2023-06-10T13:52:54;5.43;;;3.05;;
22935;SDS011;11633;42.716;23.312;2023-06-10T13:55:19;5.30;;;3.20;;
22935;SDS011;11633;42.716;23.312;2023-06-10T13:57:45;4.68;;;3.17;;
22935;SDS011;11633;42.716;23.312;2023-06-10T14:00:11;9.60;;;4.03;;
22935;SDS011;11633;42.716;23.312;2023-06-10T14:02:36;4.00;;;3.38;;
22935;SDS011;11633;42.716;23.312;2023-06-10T14:05:02;5.13;;;2.92;;
22935;SDS011;11633;42.716;23.312;2023-06-10T14:07:27;4.00;;;3.40;;
22935;SDS011;11633;42.716;23.312;2023-06-10T14:09:53;6.97;;;3.38;;
22935;SDS011;11633;42.716;23.312;2023-06-10T14:12:18;3.72;;;3.15;;
22935;SDS011;11633;42.716;23.312;2023-06-10T14:14:43;3.60;;;3.00;;
22935;SDS011;11633;42.716;23.312;2023-06-10T14:17:08;5.25;;;2.97;;
22935;SDS011;11633;42.716;23.312;2023-06-10T14:19:34;4.28;;;2.90;;
22935;SDS011;11633;42.716;23.312;2023-06-10T14:21:59;7.05;;;3.55;;
22935;SDS011;11633;42.716;23.312;2023-06-10T14:24:24;3.45;;;3.00;;
22935;SDS011;11633;42.716;23.312;2023-06-10T14:26:50;5.70;;;3.80;;
22935;SDS011;11633;42.716;23.312;2023-06-10T14:29:15;4.68;;;3.17;;
22935;SDS011;11633;42.716;23.312;2023-06-10T14:31:40;4.65;;;3.03;;